createdAt,value
2022-10-06T00:01:22.296Z,84.89
2022-10-06T00:03:23.949Z,84.94
2022-10-06T00:05:25.391Z,85.35
2022-10-06T00:07:26.876Z,85.89
2022-10-06T00:09:28.374Z,85.92
2022-10-06T00:11:29.868Z,86.18
2022-10-06T00:13:32.454Z,86.59
2022-10-06T00:15:34.119Z,86.96
2022-10-06T00:17:35.578Z,87.20
2022-10-06T00:19:37.066Z,87.23
2022-10-06T00:21:38.485Z,87.50
2022-10-06T00:23:39.951Z,87.79
2022-10-06T00:25:42.497Z,87.58
2022-10-06T00:27:47.127Z,87.42
2022-10-06T00:29:48.549Z,87.40
2022-10-06T00:31:49.984Z,87.11
2022-10-06T00:33:51.481Z,86.91
2022-10-06T00:36:00.951Z,86.08
2022-10-06T00:38:02.759Z,85.79
2022-10-06T00:40:09.692Z,85.95
2022-10-06T00:42:26.327Z,85.18
2022-10-06T00:44:27.762Z,84.80
2022-10-06T00:46:46.221Z,84.48
2022-10-06T00:48:51.184Z,84.21
2022-10-06T00:50:58.813Z,84.07
2022-10-06T00:53:00.461Z,83.54
2022-10-06T00:55:04.163Z,83.65
2022-10-06T00:57:06.462Z,83.29
2022-10-06T00:59:13.707Z,82.95
2022-10-06T01:01:15.250Z,82.87
2022-10-06T01:03:21.934Z,82.89
2022-10-06T01:05:29.454Z,83.03
2022-10-06T01:07:31.406Z,82.86
2022-10-06T01:09:33.104Z,82.54
2022-10-06T01:11:37.719Z,82.56
2022-10-06T01:13:41.305Z,82.36
2022-10-06T01:15:51.274Z,82.37
2022-10-06T01:17:57.889Z,82.27
2022-10-06T01:20:04.167Z,82.41
2022-10-06T01:22:08.389Z,82.00
2022-10-06T01:24:09.951Z,82.21
2022-10-06T01:26:14.497Z,82.31
2022-10-06T01:28:16.094Z,82.32
2022-10-06T01:30:23.460Z,81.77
2022-10-06T01:32:27.500Z,81.99
2022-10-06T01:34:29.002Z,81.80
2022-10-06T01:36:30.444Z,81.86
2022-10-06T01:38:32.526Z,82.02
2022-10-06T01:40:34.248Z,82.21
2022-10-06T01:42:36.447Z,82.35
2022-10-06T01:44:37.909Z,82.40
2022-10-06T01:46:39.411Z,82.79
2022-10-06T01:48:40.961Z,82.84
2022-10-06T01:50:42.434Z,82.87
2022-10-06T01:52:43.892Z,82.41
2022-10-06T01:54:45.660Z,82.86
2022-10-06T01:56:47.083Z,82.94
2022-10-06T01:58:49.016Z,82.25
2022-10-06T02:00:51.031Z,82.47
2022-10-06T02:02:52.473Z,82.22
2022-10-06T02:04:53.921Z,82.32
2022-10-06T02:06:55.558Z,82.60
2022-10-06T02:08:57.017Z,82.78
2022-10-06T02:10:58.735Z,82.69
2022-10-06T02:13:00.146Z,82.90
2022-10-06T02:15:02.259Z,82.94
2022-10-06T02:17:03.714Z,82.83
2022-10-06T02:19:06.402Z,82.79
2022-10-06T02:21:20.352Z,82.57
2022-10-06T02:23:21.801Z,83.09
2022-10-06T02:25:23.318Z,82.83
2022-10-06T02:27:24.791Z,83.28
2022-10-06T02:29:26.321Z,83.15
2022-10-06T02:31:27.863Z,83.12
2022-10-06T02:33:30.133Z,82.79
2022-10-06T02:35:31.587Z,83.41
2022-10-06T02:37:33.525Z,83.08
2022-10-06T02:39:35.581Z,83.28
2022-10-06T02:41:37.286Z,83.28
2022-10-06T02:43:38.943Z,83.31
2022-10-06T02:45:40.391Z,83.18
2022-10-06T02:47:41.815Z,83.60
2022-10-06T02:49:43.225Z,83.71
2022-10-06T02:51:44.649Z,83.94
2022-10-06T02:53:48.276Z,83.68
2022-10-06T02:55:49.720Z,83.86
2022-10-06T02:57:51.177Z,83.81
2022-10-06T02:59:52.633Z,83.74
2022-10-06T03:01:55.194Z,83.51
2022-10-06T03:03:56.892Z,83.72
2022-10-06T03:06:22.850Z,83.96
2022-10-06T03:08:24.296Z,83.56
2022-10-06T03:10:25.737Z,83.71
2022-10-06T03:12:27.355Z,83.55
2022-10-06T03:14:28.774Z,83.43
2022-10-06T03:16:37.137Z,83.11
2022-10-06T03:18:38.570Z,83.13
2022-10-06T03:20:40.016Z,82.77
2022-10-06T03:22:41.458Z,83.13
2022-10-06T03:24:42.904Z,82.88
2022-10-06T03:26:47.539Z,82.81
2022-10-06T03:28:49.347Z,82.97
2022-10-06T03:30:50.861Z,82.85
2022-10-06T03:32:52.756Z,83.01
2022-10-06T03:34:54.249Z,83.12
2022-10-06T03:36:55.876Z,82.57
2022-10-06T03:38:57.289Z,82.42
2022-10-06T03:41:07.629Z,81.96
2022-10-06T03:43:09.713Z,82.13
2022-10-06T03:45:11.244Z,81.86
2022-10-06T03:47:16.962Z,82.12
2022-10-06T03:49:18.952Z,81.87
2022-10-06T03:51:23.276Z,81.02
2022-10-06T03:53:28.414Z,81.20
2022-10-06T03:55:29.859Z,80.96
2022-10-06T03:57:31.266Z,80.99
2022-10-06T03:59:34.266Z,80.58
2022-10-06T04:01:47.480Z,80.45
2022-10-06T04:03:48.962Z,80.40
2022-10-06T04:05:55.719Z,80.79
2022-10-06T04:07:57.334Z,80.71
2022-10-06T04:09:58.752Z,80.25
2022-10-06T04:12:00.224Z,80.69
2022-10-06T04:14:04.423Z,80.17
2022-10-06T04:16:18.130Z,79.95
2022-10-06T04:18:19.623Z,80.08
2022-10-06T04:20:21.055Z,80.34
2022-10-06T04:22:22.475Z,80.54
2022-10-06T04:24:23.987Z,80.44
2022-10-06T04:26:33.663Z,80.84
2022-10-06T04:28:38.130Z,80.69
2022-10-06T04:30:39.663Z,81.22
2022-10-06T04:32:41.085Z,80.92
2022-10-06T04:34:42.523Z,81.30
2022-10-06T04:36:44.118Z,80.92
2022-10-06T04:38:45.588Z,80.93
2022-10-06T04:40:46.999Z,81.04
2022-10-06T04:42:49.317Z,81.37
2022-10-06T04:44:50.730Z,81.50
2022-10-06T04:46:55.217Z,81.06
2022-10-06T04:48:57.138Z,81.09
2022-10-06T04:51:03.925Z,81.00
2022-10-06T04:53:05.447Z,81.60
2022-10-06T04:55:08.291Z,81.26
2022-10-06T04:57:09.818Z,81.64
2022-10-06T04:59:11.323Z,81.34
2022-10-06T05:01:16.624Z,81.55
2022-10-06T05:03:18.226Z,81.66
2022-10-06T05:05:19.992Z,82.08
2022-10-06T05:07:21.413Z,81.76
2022-10-06T05:09:22.929Z,82.00
2022-10-06T05:11:27.299Z,81.69
2022-10-06T05:13:28.897Z,81.69
2022-10-06T05:15:30.436Z,81.88
2022-10-06T05:17:31.881Z,82.19
2022-10-06T05:19:33.330Z,82.00
2022-10-06T05:21:35.048Z,82.27
2022-10-06T05:23:38.214Z,81.84
2022-10-06T05:25:39.778Z,81.93
2022-10-06T05:27:41.199Z,82.00
2022-10-06T05:29:42.613Z,82.19
2022-10-06T05:31:45.346Z,81.98
2022-10-06T05:33:47.563Z,82.42
2022-10-06T05:35:53.655Z,81.99
2022-10-06T05:37:55.091Z,82.27
2022-10-06T05:39:56.523Z,81.65
2022-10-06T05:41:57.972Z,82.06
2022-10-06T05:43:59.624Z,82.02
2022-10-06T05:46:04.489Z,81.81
2022-10-06T05:48:06.188Z,81.56
2022-10-06T05:50:07.989Z,81.56
2022-10-06T05:52:09.440Z,81.33
2022-10-06T05:54:10.860Z,81.58
2022-10-06T05:56:17.979Z,81.61
2022-10-06T05:58:19.430Z,81.27
2022-10-06T06:00:20.848Z,81.17
2022-10-06T06:02:22.331Z,80.93
2022-10-06T06:04:23.802Z,80.92
2022-10-06T06:06:33.308Z,80.81
2022-10-06T06:08:36.449Z,81.16
2022-10-06T06:10:38.159Z,80.97
2022-10-06T06:12:39.619Z,80.56
2022-10-06T06:14:59.735Z,80.84
2022-10-06T06:17:01.223Z,80.97
2022-10-06T06:19:03.081Z,80.87
2022-10-06T06:21:07.396Z,80.52
2022-10-06T06:23:09.600Z,80.15
2022-10-06T06:25:12.923Z,80.38
2022-10-06T06:27:14.361Z,80.19
2022-10-06T06:29:15.781Z,80.11
2022-10-06T06:31:23.186Z,80.17
2022-10-06T06:33:24.644Z,79.63
2022-10-06T06:35:26.105Z,79.92
2022-10-06T06:37:31.391Z,79.54
2022-10-06T06:39:32.811Z,79.40
2022-10-06T06:41:39.820Z,79.14
2022-10-06T06:43:42.028Z,79.27
2022-10-06T06:45:43.503Z,78.90
2022-10-06T06:47:48.068Z,78.51
2022-10-06T06:49:49.513Z,78.64
2022-10-06T06:51:51.131Z,78.57
2022-10-06T06:53:53.218Z,78.58
2022-10-06T06:55:54.664Z,78.03
2022-10-06T06:57:56.105Z,78.33
2022-10-06T07:00:02.589Z,78.21
2022-10-06T07:02:04.612Z,77.77
2022-10-06T07:04:06.298Z,77.65
2022-10-06T07:06:10.564Z,77.44
2022-10-06T07:08:16.528Z,77.37
2022-10-06T07:10:17.963Z,77.38
2022-10-06T07:12:19.445Z,77.45
2022-10-06T07:14:22.642Z,77.11
2022-10-06T07:16:43.579Z,77.38
2022-10-06T07:19:04.230Z,77.54
2022-10-06T07:21:29.075Z,77.00
2022-10-06T07:23:49.032Z,77.46
2022-10-06T07:25:53.096Z,77.04
2022-10-06T07:27:54.618Z,76.86
2022-10-06T07:29:56.831Z,77.22
2022-10-06T07:31:58.588Z,75.82
2022-10-06T07:34:02.493Z,76.57
2022-10-06T07:36:04.094Z,76.70
2022-10-06T07:38:08.015Z,75.98
2022-10-06T07:40:10.099Z,75.98
2022-10-06T07:42:13.227Z,75.63
2022-10-06T07:44:14.657Z,75.01
2022-10-06T07:46:19.275Z,75.08
2022-10-06T07:48:23.386Z,75.35
2022-10-06T07:50:25.943Z,75.53
2022-10-06T07:52:30.425Z,75.00
2022-10-06T07:54:31.902Z,74.33
2022-10-06T07:56:33.343Z,74.81
2022-10-06T07:58:37.379Z,74.39
2022-10-06T08:00:38.840Z,74.04
2022-10-06T08:02:40.304Z,74.67
2022-10-06T08:04:41.833Z,74.61
2022-10-06T08:06:43.247Z,73.84
2022-10-06T08:08:50.235Z,74.08
2022-10-06T08:10:56.369Z,73.81
2022-10-06T08:12:57.895Z,73.49
2022-10-06T08:15:06.833Z,74.03
2022-10-06T08:17:09.170Z,74.02
2022-10-06T08:19:11.635Z,73.58
2022-10-06T08:21:15.929Z,73.18
2022-10-06T08:23:17.362Z,72.85
2022-10-06T08:25:19.343Z,72.98
2022-10-06T08:27:23.344Z,73.21
2022-10-06T08:29:24.791Z,72.72
2022-10-06T08:31:26.303Z,73.17
2022-10-06T08:33:27.750Z,72.92
2022-10-06T08:35:31.144Z,71.80
2022-10-06T08:37:32.588Z,71.86
2022-10-06T08:39:34.048Z,71.34
2022-10-06T08:41:44.716Z,71.06
2022-10-06T08:43:53.677Z,71.42
2022-10-06T08:46:00.936Z,70.77
2022-10-06T08:48:07.121Z,70.78
2022-10-06T08:50:12.853Z,71.10
2022-10-06T08:52:22.419Z,70.66
2022-10-06T08:54:31.221Z,71.03
2022-10-06T08:56:44.951Z,71.00
2022-10-06T08:58:53.702Z,70.60
2022-10-06T09:01:00.883Z,69.67
2022-10-06T09:03:03.846Z,70.06
2022-10-06T09:05:06.858Z,70.15
2022-10-06T09:07:15.403Z,69.79
2022-10-06T09:09:54.487Z,69.32
2022-10-06T09:12:34.509Z,69.50
2022-10-06T09:14:49.521Z,70.00
2022-10-06T09:17:00.765Z,69.62
2022-10-06T09:19:14.009Z,68.84
2022-10-06T09:21:24.381Z,68.75
2022-10-06T09:23:49.623Z,67.86
2022-10-06T09:25:51.092Z,68.45
2022-10-06T09:27:58.638Z,67.98
2022-10-06T09:30:02.076Z,68.65
2022-10-06T09:32:03.613Z,68.53
2022-10-06T09:34:05.283Z,68.02
2022-10-06T09:36:09.780Z,66.88
2022-10-06T09:38:11.578Z,66.84
2022-10-06T09:40:51.174Z,67.06
2022-10-06T09:42:53.515Z,67.49
2022-10-06T09:45:23.782Z,66.33
2022-10-06T09:47:37.145Z,65.78
2022-10-06T09:49:38.632Z,65.22
2022-10-06T09:51:40.037Z,64.61
2022-10-06T09:53:42.842Z,64.85
2022-10-06T09:55:51.359Z,63.36
2022-10-06T09:57:55.928Z,64.51
2022-10-06T10:00:00.062Z,63.60
2022-10-06T10:02:03.926Z,63.20
2022-10-06T10:04:20.476Z,63.74
2022-10-06T10:06:28.044Z,63.23
2022-10-06T10:08:32.333Z,62.35
2022-10-06T10:10:35.954Z,63.19
2022-10-06T10:12:37.412Z,62.60
2022-10-06T10:14:39.005Z,62.18
2022-10-06T10:16:40.503Z,62.22
2022-10-06T10:18:46.853Z,62.50
2022-10-06T10:20:55.682Z,61.79
2022-10-06T10:23:20.833Z,61.28
2022-10-06T10:25:36.268Z,59.80
2022-10-06T10:27:47.070Z,60.19
2022-10-06T10:30:01.695Z,60.36
2022-10-06T10:32:26.392Z,60.12
2022-10-06T10:34:59.118Z,58.66
2022-10-06T10:37:19.419Z,58.67
2022-10-06T10:39:46.980Z,57.15
2022-10-06T10:41:53.262Z,56.33
2022-10-06T10:44:10.334Z,56.59
2022-10-06T10:46:16.933Z,55.37
2022-10-06T10:48:27.519Z,53.26
2022-10-06T10:50:48.609Z,54.07
2022-10-06T10:52:53.414Z,53.77
2022-10-06T10:55:17.876Z,52.79
2022-10-06T10:57:22.482Z,51.98
2022-10-06T10:59:31.040Z,50.62
2022-10-06T11:01:41.202Z,49.60
2022-10-06T11:03:43.297Z,49.13
2022-10-06T11:06:06.115Z,47.85
2022-10-06T11:08:23.065Z,46.49
2022-10-06T11:10:48.321Z,45.82
2022-10-06T11:13:14.446Z,44.86
2022-10-06T11:15:42.144Z,45.73
2022-10-06T11:17:50.259Z,45.37
2022-10-06T11:20:08.657Z,43.88
2022-10-06T11:22:16.073Z,44.05
2022-10-06T11:24:43.837Z,44.41
2022-10-06T11:27:18.117Z,42.34
2022-10-06T11:29:30.753Z,42.80
2022-10-06T11:32:01.568Z,42.26
2022-10-06T11:34:06.326Z,41.64
2022-10-06T11:36:15.410Z,41.61
2022-10-06T11:38:25.797Z,42.26
2022-10-06T11:40:38.954Z,42.21
2022-10-06T11:42:50.509Z,43.21
2022-10-06T11:45:00.041Z,44.05
2022-10-06T11:47:07.383Z,43.75
2022-10-06T11:49:30.769Z,44.53
2022-10-06T11:51:32.339Z,45.00
2022-10-06T11:53:40.052Z,44.38
2022-10-06T11:55:41.540Z,44.67
2022-10-06T11:58:23.800Z,44.94
2022-10-06T12:00:32.302Z,45.44
2022-10-06T12:02:33.932Z,44.91
2022-10-06T12:04:35.711Z,46.20
2022-10-06T12:06:46.269Z,46.46
2022-10-06T12:08:47.725Z,47.08
2022-10-06T12:10:50.671Z,46.88
2022-10-06T12:13:31.811Z,47.19
2022-10-06T12:18:21.886Z,48.28
2022-10-06T12:20:42.319Z,48.67
2022-10-06T12:23:01.823Z,49.16
2022-10-06T12:25:14.525Z,52.24
2022-10-06T12:27:35.556Z,48.98
2022-10-06T12:29:46.979Z,49.03
2022-10-06T12:32:14.498Z,48.44
2022-10-06T12:34:41.635Z,47.71
2022-10-06T12:36:45.127Z,49.04
2022-10-06T12:39:10.687Z,50.17
2022-10-06T12:41:13.739Z,49.05
2022-10-06T12:43:18.002Z,49.84
2022-10-06T12:45:22.396Z,49.84
2022-10-06T12:47:34.953Z,50.06
2022-10-06T12:49:58.559Z,49.60
2022-10-06T12:52:09.867Z,50.45
2022-10-06T12:54:20.443Z,49.60
2022-10-06T12:56:31.843Z,48.96
2022-10-06T12:58:34.084Z,48.64
2022-10-06T13:00:40.964Z,48.67
2022-10-06T13:02:44.305Z,49.32
2022-10-06T13:04:54.058Z,49.88
2022-10-06T13:06:55.662Z,50.53
2022-10-06T13:09:13.762Z,49.89
2022-10-06T13:11:26.375Z,49.22
2022-10-06T13:13:28.182Z,49.90
2022-10-06T13:15:35.977Z,50.19
2022-10-06T13:17:43.976Z,50.03
2022-10-06T13:19:45.469Z,50.37
2022-10-06T13:21:47.105Z,49.56
2022-10-06T13:23:49.206Z,49.65
2022-10-06T13:25:55.693Z,50.53
2022-10-06T13:27:57.202Z,52.63
2022-10-06T13:30:12.421Z,49.24
2022-10-06T13:32:18.632Z,48.87
2022-10-06T13:34:43.216Z,49.39
2022-10-06T13:36:50.609Z,49.92
2022-10-06T13:38:53.250Z,49.83
2022-10-06T13:41:15.187Z,50.79
2022-10-06T13:43:18.752Z,50.40
2022-10-06T13:45:20.708Z,51.47
2022-10-06T13:47:25.497Z,51.93
2022-10-06T13:49:49.713Z,51.29
2022-10-06T13:51:56.857Z,51.22
2022-10-06T13:54:01.035Z,50.70
2022-10-06T13:56:02.483Z,51.46
2022-10-06T13:58:06.811Z,52.75
2022-10-06T14:00:23.117Z,51.55
2022-10-06T14:02:32.392Z,50.52
2022-10-06T14:04:36.012Z,49.87
2022-10-06T14:06:53.537Z,50.07
2022-10-06T14:08:57.767Z,50.71
2022-10-06T14:11:03.632Z,51.26
2022-10-06T14:13:08.802Z,50.92
2022-10-06T14:15:20.449Z,51.26
2022-10-06T14:17:28.316Z,51.38
2022-10-06T14:19:36.206Z,50.66
2022-10-06T14:21:41.914Z,50.78
2022-10-06T14:23:48.462Z,50.51
2022-10-06T14:25:49.880Z,49.50
2022-10-06T14:27:52.476Z,50.51
2022-10-06T14:29:56.093Z,51.06
2022-10-06T14:32:16.074Z,50.58
2022-10-06T14:34:19.915Z,51.67
2022-10-06T14:36:25.632Z,51.46
2022-10-06T14:38:27.047Z,50.08
2022-10-06T14:40:28.506Z,51.58
2022-10-06T14:42:29.927Z,52.53
2022-10-06T14:44:31.440Z,51.87
2022-10-06T14:46:33.537Z,51.21
2022-10-06T14:48:35.036Z,50.94
2022-10-06T14:50:36.641Z,51.41
2022-10-06T14:52:39.092Z,51.64
2022-10-06T14:54:42.625Z,52.55
2022-10-06T14:56:44.065Z,51.51
2022-10-06T14:58:45.956Z,51.43
2022-10-06T15:00:47.374Z,51.23
2022-10-06T15:02:48.950Z,53.45
2022-10-06T15:04:50.497Z,50.67
2022-10-06T15:07:10.605Z,51.03
2022-10-06T15:09:12.211Z,50.29
2022-10-06T15:11:13.611Z,50.26
2022-10-06T15:13:15.058Z,50.18
2022-10-06T15:15:16.622Z,51.06
2022-10-06T15:17:18.101Z,50.93
2022-10-06T15:19:19.561Z,51.13
2022-10-06T15:21:21.501Z,50.98
2022-10-06T15:23:22.926Z,51.14
2022-10-06T15:25:42.955Z,50.88
2022-10-06T15:28:02.844Z,50.94
2022-10-06T15:30:04.846Z,51.34
2022-10-06T15:32:06.820Z,51.64
2022-10-06T15:34:11.878Z,51.81
2022-10-06T15:36:18.974Z,53.13
2022-10-06T15:38:21.344Z,51.61
2022-10-06T15:40:22.797Z,52.17
2022-10-06T15:42:25.248Z,53.41
2022-10-06T15:44:26.912Z,53.04
2022-10-06T15:46:38.032Z,52.39
2022-10-06T15:48:41.164Z,52.38
2022-10-06T15:50:42.583Z,53.00
2022-10-06T15:52:44.007Z,52.91
2022-10-06T15:54:49.687Z,53.31
2022-10-06T15:56:54.071Z,54.08
2022-10-06T15:58:55.537Z,53.22
2022-10-06T16:00:57.122Z,53.95
2022-10-06T16:02:58.646Z,53.72
2022-10-06T16:05:02.676Z,54.28
2022-10-06T16:07:14.887Z,55.23
2022-10-06T16:09:19.467Z,53.69
2022-10-06T16:11:20.920Z,54.03
2022-10-06T16:13:22.393Z,54.29
2022-10-06T16:15:23.850Z,54.08
2022-10-06T16:17:25.252Z,54.36
2022-10-06T16:19:29.483Z,54.99
2022-10-06T16:21:32.170Z,55.54
2022-10-06T16:23:33.582Z,58.31
2022-10-06T16:25:35.006Z,60.40
2022-10-06T16:27:36.436Z,60.58
2022-10-06T16:29:37.834Z,61.63
2022-10-06T16:31:39.672Z,63.30
2022-10-06T16:33:41.363Z,63.63
2022-10-06T16:35:42.798Z,62.72
2022-10-06T16:37:49.645Z,62.37
2022-10-06T16:39:51.797Z,63.10
2022-10-06T16:41:53.992Z,64.14
2022-10-06T16:43:55.451Z,63.95
2022-10-06T16:46:01.920Z,64.36
2022-10-06T16:48:04.011Z,65.87
2022-10-06T16:50:05.834Z,67.38
2022-10-06T16:52:07.257Z,67.07
2022-10-06T16:54:13.487Z,68.04
2022-10-06T16:56:21.591Z,68.19
2022-10-06T16:58:23.050Z,68.78
2022-10-06T17:00:25.817Z,68.85
2022-10-06T17:02:27.388Z,68.71
2022-10-06T17:04:29.014Z,69.53
2022-10-06T17:06:31.872Z,69.34
2022-10-06T17:08:33.706Z,69.60
2022-10-06T17:10:35.163Z,69.31
2022-10-06T17:12:36.837Z,69.48
2022-10-06T17:14:38.487Z,68.64
2022-10-06T17:16:42.226Z,69.32
2022-10-06T17:18:47.393Z,69.56
2022-10-06T17:20:59.865Z,70.14
2022-10-06T17:23:01.289Z,71.06
2022-10-06T17:25:02.740Z,70.88
2022-10-06T17:27:04.961Z,71.09
2022-10-06T17:29:18.174Z,71.51
2022-10-06T17:31:22.609Z,71.92
2022-10-06T17:33:24.092Z,71.43
2022-10-06T17:35:25.630Z,71.81
2022-10-06T17:37:27.233Z,72.06
2022-10-06T17:39:28.928Z,72.02
2022-10-06T17:41:33.283Z,72.53
2022-10-06T17:43:39.224Z,72.35
2022-10-06T17:45:40.722Z,72.34
2022-10-06T17:47:42.206Z,72.75
2022-10-06T17:49:44.259Z,72.88
2022-10-06T17:51:45.692Z,72.58
2022-10-06T17:53:49.934Z,72.51
2022-10-06T17:55:51.410Z,73.17
2022-10-06T17:57:52.828Z,73.21
2022-10-06T17:59:55.368Z,73.39
2022-10-06T18:01:59.713Z,73.07
2022-10-06T18:04:03.863Z,73.24
2022-10-06T18:06:06.982Z,73.43
2022-10-06T18:08:10.142Z,73.65
2022-10-06T18:10:30.285Z,73.64
2022-10-06T18:12:36.094Z,73.58
2022-10-06T18:14:37.523Z,73.91
2022-10-06T18:16:41.931Z,73.98
2022-10-06T18:18:48.986Z,73.97
2022-10-06T18:20:50.456Z,73.63
2022-10-06T18:22:53.017Z,74.04
2022-10-06T18:24:59.105Z,73.63
2022-10-06T18:27:01.206Z,74.15
2022-10-06T18:29:03.391Z,73.91
2022-10-06T18:31:05.341Z,73.81
2022-10-06T18:37:53.173Z,74.43
2022-10-06T18:39:57.859Z,74.13
2022-10-06T18:42:02.819Z,74.16
2022-10-06T18:44:04.815Z,73.90
2022-10-06T18:46:26.493Z,73.90
2022-10-06T18:48:46.588Z,74.28
2022-10-06T18:50:59.306Z,74.22
2022-10-06T18:53:01.586Z,74.65
2022-10-06T18:55:03.088Z,74.76
2022-10-06T18:57:04.515Z,74.74
2022-10-06T18:59:13.228Z,74.65
2022-10-06T19:01:15.794Z,74.71
2022-10-06T19:03:17.389Z,74.63
2022-10-06T19:05:19.066Z,74.56
2022-10-06T19:07:20.491Z,74.58
2022-10-06T19:09:24.568Z,74.83
2022-10-06T19:11:50.123Z,74.93
2022-10-06T19:13:53.588Z,74.86
2022-10-06T19:15:55.330Z,75.12
2022-10-06T19:17:56.819Z,74.84
2022-10-06T19:19:58.249Z,75.07
2022-10-06T19:22:02.648Z,74.73
2022-10-06T19:24:05.351Z,74.96
2022-10-06T19:26:08.920Z,74.90
2022-10-06T19:28:10.430Z,75.08
2022-10-06T19:30:14.499Z,74.82
2022-10-06T19:32:19.557Z,74.75
2022-10-06T19:34:21.941Z,74.90
2022-10-06T19:36:23.534Z,75.14
2022-10-06T19:38:25.445Z,75.31
2022-10-06T19:40:27.369Z,75.16
2022-10-06T19:42:47.448Z,75.32
2022-10-06T19:44:49.054Z,75.24
2022-10-06T19:46:50.537Z,75.14
2022-10-06T19:48:56.493Z,75.17
2022-10-06T19:50:58.287Z,75.06
2022-10-06T19:53:00.344Z,75.06
2022-10-06T19:55:01.852Z,74.91
2022-10-06T19:57:05.741Z,74.89
2022-10-06T19:59:12.036Z,74.82
2022-10-06T20:01:14.331Z,74.95
2022-10-06T20:03:15.817Z,74.82
2022-10-06T20:05:17.767Z,74.88
2022-10-06T20:07:21.649Z,74.82
2022-10-06T20:09:23.490Z,75.08
2022-10-06T20:11:24.921Z,75.05
2022-10-06T20:13:26.351Z,75.09
2022-10-06T20:15:27.797Z,75.02
2022-10-06T20:17:29.380Z,75.17
2022-10-06T20:19:30.964Z,75.06
2022-10-06T20:21:34.868Z,75.19
2022-10-06T20:23:36.452Z,75.08
2022-10-06T20:25:37.901Z,74.99
2022-10-06T20:27:39.400Z,75.53
2022-10-06T20:29:40.844Z,75.13
2022-10-06T20:31:45.309Z,74.87
2022-10-06T20:33:49.363Z,75.01
2022-10-06T20:35:50.819Z,75.15
2022-10-06T20:37:52.259Z,75.15
2022-10-06T20:40:12.100Z,75.23
2022-10-06T20:42:15.327Z,75.19
2022-10-06T20:44:17.023Z,75.00
2022-10-06T20:46:18.504Z,75.05
2022-10-06T20:48:20.151Z,75.00
2022-10-06T20:50:21.579Z,75.22
2022-10-06T20:52:24.146Z,75.17
2022-10-06T20:54:28.006Z,75.08
2022-10-06T20:56:30.582Z,75.39
2022-10-06T20:58:32.439Z,75.21
2022-10-06T21:00:34.091Z,75.40
2022-10-06T21:02:35.562Z,75.30
2022-10-06T21:04:37.111Z,75.39
2022-10-06T21:06:38.990Z,75.26
2022-10-06T21:08:43.823Z,75.10
2022-10-06T21:10:45.995Z,75.10
2022-10-06T21:12:48.016Z,75.19
2022-10-06T21:14:49.602Z,75.04
2022-10-06T21:16:51.806Z,75.25
2022-10-06T21:18:53.386Z,75.54
2022-10-06T21:20:56.352Z,75.49
2022-10-06T21:22:57.738Z,75.76
2022-10-06T21:24:59.191Z,75.34
2022-10-06T21:27:00.614Z,75.31
2022-10-06T21:29:02.119Z,75.47
2022-10-06T21:31:05.685Z,75.18
2022-10-06T21:33:07.108Z,75.60
2022-10-06T21:35:09.100Z,75.10
2022-10-06T21:37:10.514Z,75.52
2022-10-06T21:39:13.085Z,75.56
2022-10-06T21:41:34.815Z,75.44
2022-10-06T21:43:36.285Z,75.90
2022-10-06T21:45:39.096Z,75.92
2022-10-06T21:47:40.502Z,75.96
2022-10-06T21:49:41.926Z,75.87
2022-10-06T21:51:45.731Z,75.46
2022-10-06T21:53:47.763Z,75.88
2022-10-06T21:55:53.798Z,75.41
2022-10-06T21:57:55.227Z,76.24
2022-10-06T21:59:56.626Z,76.19
2022-10-06T22:01:58.157Z,75.94
2022-10-06T22:04:00.607Z,75.89
2022-10-06T22:06:06.804Z,76.07
2022-10-06T22:08:08.195Z,75.53
2022-10-06T22:10:09.695Z,75.83
2022-10-06T22:12:11.086Z,75.36
2022-10-06T22:14:15.338Z,75.29
2022-10-06T22:16:21.611Z,75.49
2022-10-06T22:18:23.079Z,75.45
2022-10-06T22:20:24.508Z,75.08
2022-10-06T22:22:25.902Z,75.15
2022-10-06T22:24:27.438Z,75.61
2022-10-06T22:26:31.506Z,75.78
2022-10-06T22:28:33.003Z,75.81
2022-10-06T22:30:34.463Z,75.37
2022-10-06T22:32:35.894Z,75.97
2022-10-06T22:34:37.987Z,75.56
2022-10-06T22:36:39.882Z,76.09
2022-10-06T22:38:41.578Z,76.18
2022-10-06T22:40:43.043Z,75.91
2022-10-06T22:42:44.455Z,76.34
2022-10-06T22:44:45.926Z,75.61
2022-10-06T22:46:47.555Z,76.21
2022-10-06T22:48:49.027Z,76.58
2022-10-06T22:50:51.121Z,76.12
2022-10-06T22:52:52.523Z,76.14
2022-10-06T22:54:53.919Z,76.09
2022-10-06T22:56:55.963Z,76.29
2022-10-06T22:59:00.466Z,76.93
2022-10-06T23:01:12.942Z,76.21
2022-10-06T23:03:14.447Z,76.91
2022-10-06T23:05:16.080Z,76.64
2022-10-06T23:07:17.506Z,76.61
2022-10-06T23:09:18.902Z,76.33
2022-10-06T23:11:21.740Z,76.48
2022-10-06T23:13:23.137Z,76.78
2022-10-06T23:15:25.827Z,76.40
2022-10-06T23:17:27.238Z,76.66
2022-10-06T23:19:28.626Z,76.73
2022-10-06T23:21:30.099Z,76.83
2022-10-06T23:23:31.970Z,76.52
2022-10-06T23:25:37.568Z,76.21
2022-10-06T23:27:39.116Z,76.29
2022-10-06T23:29:40.507Z,76.39
2022-10-06T23:31:42.020Z,76.65
2022-10-06T23:33:43.482Z,76.51
2022-10-06T23:35:44.865Z,76.41
2022-10-06T23:37:46.894Z,76.65
2022-10-06T23:39:48.548Z,77.02
2022-10-06T23:41:49.956Z,77.01
2022-10-06T23:43:51.691Z,77.72
2022-10-06T23:45:53.262Z,77.29
2022-10-06T23:47:54.731Z,77.00
2022-10-06T23:49:56.122Z,76.97
2022-10-06T23:51:57.614Z,77.07
2022-10-06T23:53:59.010Z,77.09
2022-10-06T23:56:00.482Z,77.67
2022-10-06T23:58:01.892Z,77.04
